Time;durP1;ratioP1;P1;durP2;ratioP2;P2;SDS_P1;SDS_P2;PMS_P1;PMS_P2;Temp;Humidity;BMP_temperature;BMP_pressure;BME280_temperature;BME280_humidity;BME280_pressure;Samples;Min_cycle;Max_cycle;Signal;HPM_P1;HPM_P2
2022/10/08 00:02:27;;;;;;;16.02;7.05;;;;;;;8.30;75.57;101737.71;1816869;79;21026;-66
2022/10/08 00:04:56;;;;;;;20.88;8.60;;;;;;;8.24;75.59;101733.38;1816875;79;21054;-69
2022/10/08 00:07:25;;;;;;;18.60;8.83;;;;;;;8.21;75.79;101724.27;1816441;78;21053;-68
2022/10/08 00:09:54;;;;;;;18.75;8.05;;;;;;;8.24;76.22;101719.41;1816808;79;21045;-69
2022/10/08 00:12:23;;;;;;;15.88;7.80;;;;;;;8.26;76.33;101708.44;1841967;77;21043;-67
2022/10/08 00:14:52;;;;;;;14.50;6.97;;;;;;;8.27;76.36;101711.50;1825132;78;21133;-67
2022/10/08 00:17:21;;;;;;;13.93;6.90;;;;;;;8.26;75.94;101708.44;1816505;79;21553;-70
2022/10/08 00:19:51;;;;;;;19.30;8.80;;;;;;;8.26;75.71;101712.38;1816386;79;21063;-72
2022/10/08 00:22:20;;;;;;;17.73;8.08;;;;;;;8.24;75.69;101713.70;1816722;78;21518;-70
2022/10/08 00:24:52;;;;;;;18.12;7.80;;;;;;;8.23;75.76;101718.55;1827266;77;21199;-67
2022/10/08 00:27:28;;;;;;;14.93;7.28;;;;;;;8.22;75.90;101710.69;1862828;77;21050;-69
2022/10/08 00:29:52;;;;;;;14.83;6.78;;;;;;;8.24;75.91;101712.84;1861737;77;21058;-68
2022/10/08 00:32:21;;;;;;;17.85;7.53;;;;;;;8.23;75.80;101707.19;1862932;77;21128;-63
2022/10/08 00:34:50;;;;;;;16.05;7.85;;;;;;;8.21;75.74;101712.45;1862505;77;21107;-65
2022/10/08 00:37:19;;;;;;;17.07;8.55;;;;;;;8.18;75.93;101714.25;1860671;77;21444;-66
2022/10/08 00:39:47;;;;;;;12.40;6.78;;;;;;;8.14;76.07;101712.56;1860940;77;21053;-73
2022/10/08 00:42:16;;;;;;;15.38;7.90;;;;;;;8.08;76.06;101702.57;1816630;79;21140;-74
2022/10/08 00:44:53;;;;;;;17.62;7.92;;;;;;;7.99;76.01;101692.20;1814816;79;21046;-74
2022/10/08 00:47:43;;;;;;;14.43;7.45;;;;;;;7.93;75.98;101688.36;1829495;77;21493;-75
2022/10/08 00:50:17;;;;;;;14.30;7.10;;;;;;;7.89;76.00;101697.13;1803229;78;21054;-75
2022/10/08 00:52:48;;;;;;;16.30;7.85;;;;;;;7.87;76.13;101696.28;1807407;79;21150;-71
2022/10/08 00:55:20;;;;;;;17.12;7.78;;;;;;;7.86;76.86;101691.94;1788582;80;21164;-73
2022/10/08 00:57:50;;;;;;;17.65;9.10;;;;;;;7.86;77.19;101692.80;1807399;79;21137;-70
2022/10/08 01:00:25;;;;;;;19.42;8.43;;;;;;;7.87;77.56;101689.72;1806276;79;21132;-77
2022/10/08 01:02:54;;;;;;;12.70;6.58;;;;;;;7.87;77.51;101693.66;1807396;79;21188;-68
2022/10/08 01:05:32;;;;;;;21.23;8.73;;;;;;;7.86;77.56;101695.88;1807358;79;21537;-64
2022/10/08 01:08:20;;;;;;;24.52;9.98;;;;;;;7.85;77.49;101697.61;1789616;80;21164;-65
2022/10/08 01:11:08;;;;;;;20.70;8.38;;;;;;;7.83;77.90;101695.45;1806278;79;21079;-71
2022/10/08 01:13:43;;;;;;;14.63;8.13;;;;;;;7.82;77.70;101700.28;1807397;79;21071;-68
2022/10/08 01:16:14;;;;;;;13.65;7.22;;;;;;;7.79;77.73;101691.14;1805339;78;21128;-64
2022/10/08 01:19:02;;;;;;;15.53;7.40;;;;;;;7.79;77.36;101689.83;1789543;78;21070;-62
2022/10/08 01:21:34;;;;;;;17.25;7.42;;;;;;;7.80;77.15;101690.69;1804802;79;21068;-65
2022/10/08 01:24:12;;;;;;;15.15;6.87;;;;;;;7.79;77.15;101696.38;1826526;78;21060;-63
2022/10/08 01:27:01;;;;;;;14.58;7.35;;;;;;;7.78;77.41;101700.33;1786876;79;21095;-62
2022/10/08 01:29:35;;;;;;;19.23;7.83;;;;;;;7.74;77.59;101695.11;1822762;79;21558;-66
2022/10/08 01:32:07;;;;;;;15.90;8.10;;;;;;;7.74;77.39;101692.48;1816781;79;21156;-65
2022/10/08 01:34:39;;;;;;;14.65;7.22;;;;;;;7.74;77.19;101692.48;1784320;80;21084;-68
2022/10/08 01:37:10;;;;;;;14.20;7.10;;;;;;;7.72;77.08;101682.47;1792980;79;21052;-67
2022/10/08 01:39:40;;;;;;;16.48;8.03;;;;;;;7.71;76.96;101683.38;1804168;79;21502;-65
2022/10/08 01:42:11;;;;;;;16.93;7.33;;;;;;;7.65;76.90;101674.25;1805410;79;21133;-68
2022/10/08 01:44:43;;;;;;;15.20;6.92;;;;;;;7.56;76.94;101673.05;1795829;79;21184;-69
2022/10/08 01:47:14;;;;;;;18.27;8.03;;;;;;;7.48;77.07;101667.04;1848973;77;21054;-69
2022/10/08 01:49:54;;;;;;;18.15;7.53;;;;;;;7.47;77.07;101669.22;1848766;77;21047;-70
2022/10/08 01:52:25;;;;;;;16.05;6.97;;;;;;;7.44;77.27;101674.52;1842167;77;21046;-66
2022/10/08 01:55:00;;;;;;;20.43;7.70;;;;;;;7.45;77.23;101681.48;1846482;77;21039;-66
2022/10/08 01:57:31;;;;;;;17.45;8.03;;;;;;;7.44;77.28;101687.17;1848646;77;21164;-67
2022/10/08 02:00:02;;;;;;;16.97;8.40;;;;;;;7.42;77.33;101682.39;1823503;77;21184;-71
2022/10/08 02:02:34;;;;;;;24.90;8.85;;;;;;;7.39;77.85;101690.72;1784831;80;21098;-69
2022/10/08 02:05:05;;;;;;;21.17;8.33;;;;;;;7.36;77.88;101691.64;1800634;80;21137;-69
2022/10/08 02:07:41;;;;;;;19.80;9.23;;;;;;;7.35;78.16;101692.05;1802058;80;21067;-68
2022/10/08 02:10:12;;;;;;;15.53;7.17;;;;;;;7.33;78.35;101696.45;1801973;80;21133;-68
2022/10/08 02:12:42;;;;;;;13.10;6.70;;;;;;;7.32;78.68;101705.21;1801895;80;21640;-76
2022/10/08 02:15:17;;;;;;;20.70;8.23;;;;;;;7.32;78.45;101697.77;1804718;78;21119;-73
2022/10/08 02:17:51;;;;;;;16.40;6.45;;;;;;;7.34;78.50;101696.89;1786412;79;21112;-69
2022/10/08 02:20:22;;;;;;;19.25;7.50;;;;;;;7.35;78.32;101688.58;1808862;79;21157;-71
2022/10/08 02:23:01;;;;;;;24.05;8.00;;;;;;;7.32;78.13;101685.56;1814471;78;21120;-65
2022/10/08 02:25:47;;;;;;;21.30;9.03;;;;;;;7.28;78.24;101686.45;1825185;78;21015;-69
2022/10/08 02:28:19;;;;;;;17.70;8.40;;;;;;;7.25;78.24;101689.54;1816204;78;21183;-69
2022/10/08 02:30:51;;;;;;;17.10;7.35;;;;;;;7.26;78.06;101690.84;1775050;79;21098;-72
2022/10/08 02:33:25;;;;;;;16.17;7.70;;;;;;;7.20;77.98;101690.91;1796107;79;21066;-73
2022/10/08 02:35:57;;;;;;;17.45;7.33;;;;;;;7.17;78.14;101681.77;1766143;81;21195;-73
2022/10/08 02:38:28;;;;;;;17.87;7.78;;;;;;;7.18;78.18;101673.03;1837250;78;21123;-66
2022/10/08 02:41:00;;;;;;;15.50;9.33;;;;;;;7.16;78.24;101668.26;1836995;78;21122;-67
2022/10/08 02:43:32;;;;;;;18.07;8.08;;;;;;;7.12;78.14;101663.94;1832623;77;21049;-68
2022/10/08 02:46:13;;;;;;;15.58;7.92;;;;;;;7.08;78.10;101664.83;1800654;78;21097;-67
2022/10/08 02:48:45;;;;;;;16.32;7.35;;;;;;;7.03;78.50;101671.89;1810605;78;21454;-68
2022/10/08 02:51:17;;;;;;;15.20;6.92;;;;;;;7.02;78.79;101670.14;1799338;78;21065;-67
2022/10/08 02:53:48;;;;;;;14.55;6.50;;;;;;;7.01;78.89;101674.93;1796093;79;21050;-67
2022/10/08 02:56:19;;;;;;;18.98;6.90;;;;;;;6.98;78.86;101668.44;1803745;79;21055;-65
2022/10/08 02:58:48;;;;;;;15.53;6.42;;;;;;;6.94;79.25;101664.98;1769237;79;21070;-66
2022/10/08 03:01:29;;;;;;;16.30;6.75;;;;;;;6.89;79.23;101661.08;1766981;81;21073;-66
2022/10/08 03:04:01;;;;;;;13.45;7.28;;;;;;;6.84;79.01;101662.00;1775542;79;21045;-65
2022/10/08 03:06:31;;;;;;;13.68;6.85;;;;;;;6.79;78.86;101663.36;1789076;79;21510;-63
2022/10/08 03:09:02;;;;;;;18.52;7.17;;;;;;;6.72;78.80;101655.13;1772274;80;21566;-64
2022/10/08 03:11:32;;;;;;;17.52;8.05;;;;;;;6.67;78.84;101660.84;1802235;79;21204;-64
2022/10/08 03:14:04;;;;;;;16.82;8.18;;;;;;;6.63;78.83;101661.75;1776314;79;21116;-64
2022/10/08 03:16:39;;;;;;;15.38;8.18;;;;;;;6.56;78.87;101661.77;1813953;79;21040;-63
2022/10/08 03:19:09;;;;;;;17.20;8.20;;;;;;;6.52;78.90;101664.00;1784460;80;21114;-66
2022/10/08 03:21:40;;;;;;;15.53;7.60;;;;;;;6.49;78.98;101664.45;1812118;78;21036;-65
2022/10/08 03:24:14;;;;;;;13.58;5.83;;;;;;;6.51;79.39;101666.20;1811960;79;21120;-66
2022/10/08 03:26:43;;;;;;;13.53;6.70;;;;;;;6.61;80.08;101663.52;1802504;79;21164;-65
2022/10/08 03:29:12;;;;;;;17.57;6.95;;;;;;;6.70;79.95;101669.98;1804687;79;21075;-65
2022/10/08 03:31:41;;;;;;;15.38;7.12;;;;;;;6.79;80.05;101676.87;1795534;80;21149;-65
2022/10/08 03:34:10;;;;;;;12.78;6.75;;;;;;;6.85;79.78;101676.84;1835230;78;21089;-65
2022/10/08 03:36:39;;;;;;;18.32;6.97;;;;;;;6.95;79.67;101672.82;1830315;78;21050;-64
2022/10/08 03:39:12;;;;;;;14.45;7.03;;;;;;;7.02;79.74;101668.83;1831830;78;21473;-64
2022/10/08 03:41:41;;;;;;;15.25;7.67;;;;;;;7.12;79.74;101674.42;1834346;78;21070;-63
2022/10/08 03:44:11;;;;;;;17.92;6.92;;;;;;;7.22;79.53;101669.50;1834060;78;21054;-64
2022/10/08 03:46:39;;;;;;;16.02;7.33;;;;;;;7.30;79.48;101666.38;1833674;78;21081;-64
2022/10/08 03:49:08;;;;;;;19.77;7.50;;;;;;;7.38;79.45;101671.94;1834149;78;21022;-64
2022/10/08 03:51:37;;;;;;;16.67;7.50;;;;;;;7.45;79.43;101677.13;1834226;78;21069;-63
2022/10/08 03:54:05;;;;;;;19.27;7.97;;;;;;;7.52;79.30;101666.11;1834068;78;21078;-65
2022/10/08 03:56:34;;;;;;;16.15;8.03;;;;;;;7.62;79.11;101665.58;1833686;78;21034;-64
2022/10/08 03:59:03;;;;;;;15.30;6.90;;;;;;;7.70;78.94;101665.89;1833988;78;21124;-63
2022/10/08 04:01:31;;;;;;;13.93;7.35;;;;;;;7.75;78.78;101665.85;1849617;77;21152;-64
2022/10/08 04:04:00;;;;;;;13.08;6.25;;;;;;;7.78;78.78;101671.03;1865187;77;21168;-64
2022/10/08 04:06:29;;;;;;;11.70;6.65;;;;;;;7.82;78.71;101671.86;1862222;77;21042;-63
2022/10/08 04:09:00;;;;;;;15.45;6.35;;;;;;;7.85;78.56;101668.77;1859970;77;21066;-63
2022/10/08 04:11:29;;;;;;;15.55;6.20;;;;;;;7.91;78.45;101656.02;1859723;77;21132;-63
2022/10/08 04:14:00;;;;;;;14.55;7.08;;;;;;;7.97;78.32;101660.31;1859773;77;21054;-64
2022/10/08 04:16:28;;;;;;;13.60;5.45;;;;;;;7.99;78.32;101671.22;1860354;77;21484;-64
2022/10/08 04:18:57;;;;;;;16.42;6.70;;;;;;;8.01;78.38;101673.83;1859875;77;21115;-64
2022/10/08 04:21:26;;;;;;;14.10;5.95;;;;;;;8.01;78.41;101668.13;1859821;77;21140;-64
2022/10/08 04:23:56;;;;;;;17.62;6.40;;;;;;;8.06;78.38;101663.69;1859776;77;21074;-64
2022/10/08 04:26:25;;;;;;;16.52;6.12;;;;;;;8.14;78.28;101657.48;1862829;77;21180;-64
2022/10/08 04:28:54;;;;;;;25.05;11.53;;;;;;;8.21;78.14;101665.23;1846795;77;21087;-64
2022/10/08 04:31:23;;;;;;;28.00;13.40;;;;;;;8.27;78.02;101659.02;1841212;78;21126;-64
2022/10/08 04:33:52;;;;;;;21.65;12.13;;;;;;;8.35;77.93;101654.52;1841158;78;21561;-65
2022/10/08 04:36:24;;;;;;;25.40;10.58;;;;;;;8.41;77.90;101654.44;1838252;78;21079;-64
2022/10/08 04:38:53;;;;;;;23.30;11.28;;;;;;;8.44;77.93;101651.78;1838523;78;21176;-64
2022/10/08 04:41:26;;;;;;;20.70;11.00;;;;;;;8.50;77.92;101655.64;1838518;78;21055;-64
2022/10/08 04:43:57;;;;;;;21.30;10.82;;;;;;;8.56;77.95;101659.03;1838783;78;21121;-65
2022/10/08 04:46:25;;;;;;;22.25;9.00;;;;;;;8.62;77.91;101652.40;1840296;78;21055;-65
2022/10/08 04:48:56;;;;;;;18.15;9.00;;;;;;;8.69;77.80;101651.41;1841003;78;21052;-65
2022/10/08 04:51:27;;;;;;;15.45;7.55;;;;;;;8.76;77.70;101655.67;1841089;78;21501;-65
2022/10/08 04:53:57;;;;;;;13.32;7.08;;;;;;;8.84;77.59;101660.33;1841183;78;21039;-64
2022/10/08 04:56:28;;;;;;;13.48;6.20;;;;;;;8.94;77.50;101668.05;1840852;78;21517;-64
2022/10/08 04:58:58;;;;;;;18.35;6.62;;;;;;;9.00;77.45;101667.51;1841092;78;21035;-63
2022/10/08 05:01:28;;;;;;;16.17;6.70;;;;;;;9.07;77.37;101664.30;1841169;78;21047;-65
2022/10/08 05:03:59;;;;;;;13.85;6.33;;;;;;;9.13;77.32;101664.22;1841144;78;21572;-64
2022/10/08 05:06:30;;;;;;;12.45;6.75;;;;;;;9.19;77.28;101668.03;1839998;78;21113;-64
2022/10/08 05:09:06;;;;;;;14.53;6.75;;;;;;;9.28;77.21;101672.27;1838496;78;21149;-64
2022/10/08 05:11:32;;;;;;;14.95;6.15;;;;;;;9.36;77.17;101665.08;1838006;78;21533;-63
2022/10/08 05:14:01;;;;;;;22.55;6.17;;;;;;;9.45;77.09;101666.67;1838354;78;21101;-64
2022/10/08 05:16:30;;;;;;;16.77;5.75;;;;;;;9.52;76.99;101670.92;1839032;78;21071;-65
2022/10/08 05:18:59;;;;;;;16.62;6.17;;;;;;;9.58;76.91;101673.42;1841123;78;21083;-65
2022/10/08 05:21:31;;;;;;;14.40;6.22;;;;;;;9.63;76.82;101672.88;1841063;78;21067;-65
2022/10/08 05:24:02;;;;;;;17.67;5.97;;;;;;;9.69;76.71;101660.52;1841145;78;21055;-64
2022/10/08 05:26:34;;;;;;;14.33;5.17;;;;;;;9.77;76.64;101661.20;1839848;78;21062;-65
2022/10/08 05:29:03;;;;;;;16.00;5.92;;;;;;;9.85;76.57;101664.56;1838443;76;21189;-63
2022/10/08 05:31:33;;;;;;;16.27;6.65;;;;;;;9.91;76.52;101665.73;1840191;78;21071;-65
2022/10/08 05:34:01;;;;;;;24.10;8.88;;;;;;;9.96;76.48;101665.19;1841167;78;21056;-64
2022/10/08 05:36:32;;;;;;;20.92;8.50;;;;;;;10.03;76.42;101661.95;1838984;78;21044;-64
2022/10/08 05:39:03;;;;;;;16.55;6.75;;;;;;;10.11;76.38;101665.77;1838433;78;21035;-65
2022/10/08 05:41:36;;;;;;;29.05;7.03;;;;;;;10.17;76.25;101657.72;1838547;78;21137;-65
2022/10/08 05:44:06;;;;;;;23.27;7.45;;;;;;;10.24;76.15;101655.36;1838622;78;21071;-64
2022/10/08 05:46:36;;;;;;;22.02;7.25;;;;;;;10.31;76.06;101649.52;1838440;78;21517;-64
2022/10/08 05:49:07;;;;;;;24.75;7.75;;;;;;;10.39;75.95;101656.34;1838414;78;21149;-68
2022/10/08 05:51:37;;;;;;;28.98;8.85;;;;;;;10.47;75.89;101655.30;1838678;78;21521;-66
2022/10/08 05:54:06;;;;;;;26.10;10.25;;;;;;;10.53;75.80;101649.45;1848244;76;21587;-68
2022/10/08 05:56:35;;;;;;;44.27;14.73;;;;;;;10.62;75.77;101653.59;1881164;76;21042;-64
2022/10/08 05:59:03;;;;;;;37.20;11.03;;;;;;;10.70;75.69;101658.24;1883221;76;21019;-64
2022/10/08 06:01:33;;;;;;;26.97;8.23;;;;;;;10.78;75.62;101664.17;1882572;76;21078;-64
2022/10/08 06:04:09;;;;;;;32.58;9.10;;;;;;;10.87;75.53;101650.37;1837751;78;21489;-62
2022/10/08 06:06:36;;;;;;;37.90;12.05;;;;;;;10.96;75.47;101643.55;1838265;78;21544;-63
2022/10/08 06:09:06;;;;;;;28.77;10.08;;;;;;;11.08;75.49;101651.10;1838450;78;21047;-63
2022/10/08 06:11:37;;;;;;;28.67;9.93;;;;;;;11.16;75.52;101659.69;1838601;78;21477;-63
2022/10/08 06:14:07;;;;;;;42.13;10.80;;;;;;;11.23;75.41;101656.87;1838546;78;21079;-63
2022/10/08 06:16:36;;;;;;;30.70;8.85;;;;;;;11.30;75.35;101659.77;1838441;78;21572;-63
2022/10/08 06:19:06;;;;;;;23.52;7.10;;;;;;;11.36;75.28;101658.27;1838659;78;21198;-63
2022/10/08 06:21:35;;;;;;;15.28;4.97;;;;;;;11.43;75.23;101666.42;1840655;78;21060;-63
2022/10/08 06:24:07;;;;;;;25.50;7.65;;;;;;;11.52;75.15;101663.52;1841221;78;21490;-63
2022/10/08 06:26:38;;;;;;;39.38;10.58;;;;;;;11.59;75.13;101664.23;1841345;78;21121;-63
2022/10/08 06:29:09;;;;;;;14.35;5.53;;;;;;;11.66;75.03;101675.48;1839759;77;21153;-64
2022/10/08 06:31:38;;;;;;;15.30;6.25;;;;;;;11.72;74.92;101671.34;1854741;77;21051;-65
2022/10/08 06:34:07;;;;;;;18.90;6.30;;;;;;;11.77;74.77;101666.33;1859026;77;21145;-65
2022/10/08 06:36:36;;;;;;;13.45;5.50;;;;;;;11.86;74.79;101655.97;1859307;77;21433;-65
2022/10/08 06:39:08;;;;;;;18.20;6.30;;;;;;;11.96;74.67;101660.54;1859047;77;21031;-65
2022/10/08 06:41:37;;;;;;;20.20;6.95;;;;;;;12.09;74.59;101661.89;1856528;77;21062;-65
2022/10/08 06:44:09;;;;;;;18.90;6.22;;;;;;;12.24;74.59;101649.13;1859137;77;21046;-65
2022/10/08 06:46:38;;;;;;;13.20;4.83;;;;;;;12.45;74.41;101650.21;1859024;77;21100;-65
2022/10/08 06:49:07;;;;;;;9.90;4.08;;;;;;;12.68;74.27;101647.69;1859035;77;21026;-66
2022/10/08 06:51:35;;;;;;;13.40;5.25;;;;;;;13.01;73.95;101649.25;1856679;77;21074;-66
2022/10/08 06:54:04;;;;;;;14.47;5.78;;;;;;;13.45;73.55;101641.55;1858921;77;21038;-66
2022/10/08 06:56:34;;;;;;;16.70;7.53;;;;;;;14.05;73.01;101642.80;1859003;77;21098;-66
2022/10/08 06:59:04;;;;;;;15.25;7.12;;;;;;;14.74;71.97;101625.04;1859074;77;21113;-66
2022/10/08 07:01:33;;;;;;;10.15;5.30;;;;;;;15.81;70.29;101610.97;1856694;77;21063;-66
2022/10/08 07:04:03;;;;;;;13.38;5.03;;;;;;;17.32;68.38;101611.42;1859079;77;21050;-66
2022/10/08 07:06:32;;;;;;;10.72;5.05;;;;;;;18.48;66.63;101603.20;1858954;77;21509;-67
2022/10/08 07:09:02;;;;;;;11.93;5.12;;;;;;;19.28;64.60;101597.06;1859048;77;21129;-65
2022/10/08 07:11:32;;;;;;;9.90;4.42;;;;;;;19.95;62.96;101587.56;1859132;77;21493;-65
2022/10/08 07:14:01;;;;;;;7.17;3.70;;;;;;;20.60;61.42;101592.14;1807219;79;21477;-65
2022/10/08 07:16:30;;;;;;;11.68;4.17;;;;;;;20.98;59.53;101590.03;1768130;81;21097;-65
2022/10/08 07:18:59;;;;;;;6.37;3.65;;;;;;;21.11;57.97;101582.84;1798293;80;21143;-66
2022/10/08 07:21:29;;;;;;;10.05;4.95;;;;;;;21.23;56.34;101577.59;1822300;77;21059;-64
2022/10/08 07:24:00;;;;;;;7.55;4.25;;;;;;;21.29;55.67;101577.17;1826724;78;21120;-63
2022/10/08 07:26:32;;;;;;;7.62;3.58;;;;;;;21.65;55.34;101580.88;1826652;78;21129;-63
2022/10/08 07:29:03;;;;;;;8.43;3.98;;;;;;;22.08;54.22;101583.95;1826558;78;21062;-63
2022/10/08 07:31:34;;;;;;;7.62;4.40;;;;;;;22.26;53.20;101580.41;1836481;78;21178;-63
2022/10/08 07:34:09;;;;;;;9.95;3.33;;;;;;;22.59;52.52;101580.14;1837346;78;21068;-64
2022/10/08 07:36:38;;;;;;;9.23;3.75;;;;;;;22.96;51.85;101584.00;1837380;78;21140;-64
2022/10/08 07:39:10;;;;;;;11.00;4.90;;;;;;;22.68;50.19;101585.30;1837375;78;21550;-64
2022/10/08 07:41:38;;;;;;;8.93;3.95;;;;;;;22.79;49.51;101583.13;1837529;78;21487;-65
2022/10/08 07:44:08;;;;;;;9.18;3.92;;;;;;;22.87;49.47;101576.66;1837221;78;21072;-65
2022/10/08 07:46:38;;;;;;;10.53;5.55;;;;;;;22.86;48.41;101573.13;1837357;78;21168;-65
2022/10/08 07:49:07;;;;;;;9.93;4.97;;;;;;;22.99;48.32;101562.28;1837263;77;21072;-65
2022/10/08 07:51:36;;;;;;;8.45;4.00;;;;;;;23.33;48.14;101560.96;1837374;78;21207;-65
2022/10/08 07:54:07;;;;;;;10.53;4.22;;;;;;;23.96;47.99;101551.86;1837565;78;21468;-65
2022/10/08 07:56:36;;;;;;;9.38;4.08;;;;;;;24.29;47.22;101545.98;1837290;78;21033;-65
2022/10/08 07:59:06;;;;;;;8.58;3.33;;;;;;;24.46;46.27;101540.00;1837139;78;21526;-66
2022/10/08 08:01:35;;;;;;;9.63;4.20;;;;;;;24.35;45.54;101534.68;1836605;78;21186;-65
2022/10/08 08:04:06;;;;;;;7.67;3.77;;;;;;;24.35;45.43;101528.45;1836006;78;21084;-65
2022/10/08 08:06:40;;;;;;;8.63;3.27;;;;;;;24.60;45.41;101537.48;1836000;78;21041;-65
2022/10/08 08:09:10;;;;;;;9.55;4.30;;;;;;;24.92;45.46;101535.67;1836375;78;21060;-65
2022/10/08 08:11:39;;;;;;;21.23;8.53;;;;;;;25.35;44.87;101550.80;1807587;79;21498;-66
2022/10/08 08:14:08;;;;;;;11.33;4.42;;;;;;;25.34;43.50;101553.13;1807411;79;21092;-66
2022/10/08 08:16:36;;;;;;;10.72;4.55;;;;;;;24.95;43.22;101552.42;1807408;79;21080;-66
2022/10/08 08:19:05;;;;;;;7.72;3.72;;;;;;;25.06;43.56;101547.45;1819787;78;21184;-66
2022/10/08 08:21:36;;;;;;;9.73;4.87;;;;;;;25.40;43.65;101545.35;1835902;78;21136;-66
2022/10/08 08:24:11;;;;;;;11.18;5.22;;;;;;;25.47;42.94;101540.75;1835905;78;21143;-66
2022/10/08 08:26:42;;;;;;;12.43;5.20;;;;;;;25.78;42.75;101526.22;1836025;78;21052;-64
2022/10/08 08:29:18;;;;;;;7.95;3.70;;;;;;;26.06;42.59;101522.83;1835837;78;21123;-64
2022/10/08 08:31:49;;;;;;;9.35;4.50;;;;;;;26.29;42.11;101520.70;1835960;78;21108;-63
2022/10/08 08:34:23;;;;;;;8.33;4.83;;;;;;;26.37;41.63;101505.97;1835968;78;21198;-63
2022/10/08 08:36:53;;;;;;;9.10;4.20;;;;;;;26.02;41.75;101496.62;1836035;78;21139;-63
2022/10/08 08:39:24;;;;;;;7.75;3.70;;;;;;;25.81;41.81;101496.24;1836269;78;21580;-64
2022/10/08 08:41:55;;;;;;;8.33;2.70;;;;;;;25.87;41.51;101494.82;1820544;78;21077;-64
2022/10/08 08:44:36;;;;;;;8.98;4.25;;;;;;;26.17;41.35;101491.17;1834819;78;21080;-63
2022/10/08 08:47:20;;;;;;;7.03;3.25;;;;;;;26.28;41.09;101482.06;1836274;78;21189;-65
2022/10/08 08:49:55;;;;;;;6.30;3.47;;;;;;;26.53;40.69;101481.08;1840256;78;21115;-65
2022/10/08 08:52:26;;;;;;;8.83;3.92;;;;;;;26.36;40.15;101483.53;1838278;78;21029;-66
2022/10/08 08:54:55;;;;;;;7.25;3.92;;;;;;;26.37;39.95;101483.89;1837159;78;21112;-66
2022/10/08 08:57:33;;;;;;;6.47;3.27;;;;;;;26.17;39.93;101499.27;1837153;78;21109;-66
2022/10/08 09:00:17;;;;;;;5.72;3.20;;;;;;;25.92;40.18;101480.92;1837299;77;21025;-65
2022/10/08 09:02:57;;;;;;;6.47;3.62;;;;;;;25.98;40.36;101468.23;1839834;77;21522;-65
2022/10/08 09:05:29;;;;;;;7.72;3.25;;;;;;;26.02;40.51;101465.59;1866908;76;21057;-66
2022/10/08 09:08:04;;;;;;;9.30;3.70;;;;;;;26.36;40.39;101454.34;1865604;77;21118;-66
2022/10/08 09:10:42;;;;;;;8.08;3.75;;;;;;;26.61;40.23;101447.96;1837423;78;21131;-66
2022/10/08 09:13:22;;;;;;;9.65;4.28;;;;;;;26.91;40.06;101445.00;1836133;78;21033;-66
2022/10/08 09:15:54;;;;;;;6.28;3.55;;;;;;;26.89;39.49;101436.19;1837086;78;21045;-65
2022/10/08 09:18:23;;;;;;;7.95;3.02;;;;;;;26.86;39.50;101428.89;1831412;78;21138;-65
2022/10/08 09:20:52;;;;;;;6.20;3.12;;;;;;;27.07;39.58;101432.67;1838339;78;21480;-65
2022/10/08 09:23:23;;;;;;;10.32;3.65;;;;;;;27.08;39.38;101428.98;1839355;78;21080;-66
2022/10/08 09:26:12;;;;;;;8.20;3.08;;;;;;;27.09;39.29;101426.10;1837556;78;21108;-65
2022/10/08 09:28:43;;;;;;;9.40;3.30;;;;;;;27.34;39.27;101419.15;1837111;78;21122;-65
2022/10/08 09:31:20;;;;;;;7.58;3.08;;;;;;;27.46;38.99;101401.34;1801799;79;21111;-65
2022/10/08 09:34:07;;;;;;;8.45;2.60;;;;;;;27.61;38.76;101402.52;1854861;77;21090;-65
2022/10/08 09:36:39;;;;;;;4.33;2.60;;;;;;;27.54;38.54;101398.73;1856326;77;21058;-65
2022/10/08 09:39:20;;;;;;;5.42;2.52;;;;;;;27.28;38.46;101395.92;1858124;77;21116;-65
2022/10/08 09:42:09;;;;;;;4.55;3.15;;;;;;;27.26;38.59;101392.05;1853084;77;21494;-66
2022/10/08 09:45:02;;;;;;;11.12;4.15;;;;;;;27.23;38.37;101386.91;1859652;75;21154;-73
2022/10/08 09:47:25;;;;;;;3.77;1.82;;;;;;;27.11;38.31;101378.66;1884722;75;21580;-74
2022/10/08 09:50:07;;;;;;;13.55;3.65;;;;;;;27.02;37.85;101380.92;1856385;77;21168;-66
2022/10/08 09:52:38;;;;;;;5.40;2.22;;;;;;;26.75;37.86;101378.60;1857034;77;21095;-67
2022/10/08 09:55:22;;;;;;;6.87;2.87;;;;;;;26.39;37.92;101371.20;1854870;77;21050;-67
2022/10/08 09:57:59;;;;;;;8.83;3.33;;;;;;;26.20;38.26;101363.16;1857187;77;21082;-68
2022/10/08 10:00:34;;;;;;;6.90;3.65;;;;;;;26.16;38.42;101363.95;1854694;77;21116;-67
2022/10/08 10:03:05;;;;;;;8.18;4.30;;;;;;;25.98;38.40;101350.36;1865779;76;21125;-67
2022/10/08 10:05:36;;;;;;;16.37;5.25;;;;;;;26.03;38.63;101341.00;1865495;76;21493;-70
2022/10/08 10:08:05;;;;;;;9.28;4.28;;;;;;;25.96;38.79;101339.38;1857509;77;21125;-66
2022/10/08 10:10:39;;;;;;;6.35;2.95;;;;;;;26.06;38.81;101346.95;1857861;77;21066;-66
2022/10/08 10:13:23;;;;;;;7.40;3.22;;;;;;;25.92;38.82;101333.41;1858156;77;21129;-67
2022/10/08 10:16:03;;;;;;;26.27;4.65;;;;;;;25.83;39.15;101323.97;1857391;77;21493;-66
2022/10/08 10:18:35;;;;;;;12.88;4.83;;;;;;;25.75;39.26;101333.64;1858214;77;21560;-67
2022/10/08 10:21:06;;;;;;;9.38;4.87;;;;;;;25.54;39.43;101319.47;1857965;77;21055;-67
2022/10/08 10:23:41;;;;;;;4.97;2.95;;;;;;;25.10;39.87;101314.97;1856013;77;21509;-64
2022/10/08 10:26:18;;;;;;;8.83;4.05;;;;;;;24.92;40.28;101314.33;1856485;77;21494;-64
2022/10/08 10:28:50;;;;;;;15.40;6.03;;;;;;;24.73;40.68;101307.55;1858114;77;21103;-64
2022/10/08 10:31:33;;;;;;;12.88;5.62;;;;;;;24.51;41.14;101295.97;1844423;77;21102;-64
2022/10/08 10:34:11;;;;;;;;;;;;;;;24.29;41.55;101302.44;1855507;77;21563;-63
2022/10/08 10:37:01;;;;;;;14.50;5.78;;;;;;;24.02;42.13;101285.03;1828653;77;20146;-63
2022/10/08 10:39:52;;;;;;;15.83;6.00;;;;;;;23.94;42.38;101284.87;1851005;76;21490;-63
2022/10/08 10:42:40;;;;;;;9.30;4.92;;;;;;;24.10;42.37;101276.28;1845047;78;21047;-63
2022/10/08 10:45:15;;;;;;;11.28;5.92;;;;;;;24.42;41.89;101265.37;1844845;78;21145;-63
2022/10/08 10:47:43;;;;;;;15.55;6.10;;;;;;;24.60;41.64;101268.76;1844693;78;21182;-63
2022/10/08 10:50:18;;;;;;;6.95;3.98;;;;;;;24.62;41.76;101267.65;1845005;77;21152;-65
2022/10/08 10:52:55;;;;;;;11.85;5.62;;;;;;;24.51;41.36;101270.40;1844806;78;21626;-64
2022/10/08 10:55:36;;;;;;;9.55;5.28;;;;;;;24.29;41.68;101262.08;1844957;78;21019;-63
2022/10/08 10:58:31;;;;;;;12.93;5.20;;;;;;;24.06;42.09;101264.09;1845034;78;21051;-63
2022/10/08 11:01:27;;;;;;;9.00;2.98;;;;;;;24.01;42.39;101252.89;1875568;76;21136;-63
2022/10/08 11:04:25;;;;;;;9.75;4.40;;;;;;;24.14;42.34;101245.43;1886027;76;21548;-63
2022/10/08 11:07:10;;;;;;;6.42;3.17;;;;;;;24.36;42.33;101246.22;1842676;76;21061;-64
2022/10/08 11:10:00;;;;;;;10.32;4.80;;;;;;;24.72;41.72;101242.58;1842224;78;21145;-63
2022/10/08 11:12:34;;;;;;;13.40;5.28;;;;;;;24.74;41.54;101232.02;1843349;78;21055;-61
2022/10/08 11:15:21;;;;;;;10.38;4.40;;;;;;;24.94;41.50;101225.30;1837924;78;21121;-62
2022/10/08 11:18:02;;;;;;;18.30;4.75;;;;;;;24.79;41.42;101219.48;1844986;78;21485;-61
2022/10/08 11:20:45;;;;;;;12.80;4.35;;;;;;;24.52;41.88;101207.55;1845052;78;21051;-61
2022/10/08 11:23:34;;;;;;;12.88;5.75;;;;;;;24.16;42.18;101201.78;1843562;78;21031;-62
2022/10/08 11:26:14;;;;;;;11.50;4.33;;;;;;;23.87;42.72;101206.55;1843872;78;21513;-62
2022/10/08 11:28:45;;;;;;;10.82;4.95;;;;;;;23.56;43.31;101207.00;1844267;77;21517;-62
2022/10/08 11:31:37;;;;;;;8.98;3.80;;;;;;;23.30;43.82;101201.20;1844565;78;21055;-63
2022/10/08 11:34:08;;;;;;;10.03;3.75;;;;;;;23.26;44.13;101191.70;1847540;76;21075;-63
2022/10/08 11:36:52;;;;;;;8.50;3.95;;;;;;;23.21;44.44;101190.74;1846300;78;21094;-61
2022/10/08 11:39:23;;;;;;;13.13;4.20;;;;;;;23.12;44.61;101184.31;1847224;78;20981;-65
2022/10/08 11:42:06;;;;;;;8.95;3.75;;;;;;;23.07;44.82;101188.38;1846369;78;21681;-63
2022/10/08 11:44:36;;;;;;;;;;;;;;;22.94;44.85;101189.87;1850078;78;21022;-63
2022/10/08 11:47:36;;;;;;;14.07;3.30;;;;;;;22.81;45.35;101186.52;1847528;78;20365;-63
2022/10/08 11:50:07;;;;;;;7.85;3.45;;;;;;;22.78;45.61;101183.61;1847317;77;21157;-63
2022/10/08 11:52:36;;;;;;;17.60;4.15;;;;;;;22.77;45.68;101191.79;1844951;78;21545;-63